Time;durP1;ratioP1;P1;durP2;ratioP2;P2;SDS_P1;SDS_P2;PMS_P1;PMS_P2;Temp;Humidity;BMP_temperature;BMP_pressure;BME280_temperature;BME280_humidity;BME280_pressure;Samples;Min_cycle;Max_cycle;Signal;HPM_P1;HPM_P2
2021/07/31 07:00:32;;;;;;;5.05;2.10;;;;;;;23.56;45.38;98358.69;6032389;23;20019;31
2021/07/31 07:02:57;;;;;;;5.78;1.33;;;;;;;24.48;43.07;98362.00;4876907;29;20053;-70
2021/07/31 07:05:22;;;;;;;7.68;1.60;;;;;;;25.25;41.46;98352.03;4878606;29;20036;-71
2021/07/31 07:07:47;;;;;;;10.02;1.50;;;;;;;26.77;38.66;98357.28;4878542;29;20033;-72
2021/07/31 07:10:13;;;;;;;6.10;2.00;;;;;;;28.04;36.74;98348.03;4879186;29;20116;-71
2021/07/31 07:12:38;;;;;;;3.25;1.52;;;;;;;28.11;35.78;98347.28;4897028;29;20040;-72
2021/07/31 07:15:04;;;;;;;6.07;1.60;;;;;;;27.72;36.98;98346.66;4897723;29;20036;-72
2021/07/31 07:17:29;;;;;;;5.55;1.42;;;;;;;29.11;34.09;98345.47;4897019;29;20060;-72
2021/07/31 07:19:55;;;;;;;5.57;1.67;;;;;;;28.65;34.62;98342.03;4897190;29;20487;-72
2021/07/31 07:22:20;;;;;;;6.40;1.65;;;;;;;30.36;31.40;98335.06;4896760;29;20025;-72
2021/07/31 07:24:46;;;;;;;4.50;1.73;;;;;;;28.74;34.25;98337.63;4897272;29;20032;-72
2021/07/31 07:27:11;;;;;;;8.60;1.35;;;;;;;28.76;33.42;98341.78;4897064;29;20029;-72
2021/07/31 07:29:36;;;;;;;3.35;1.73;;;;;;;29.30;32.74;98336.41;4897175;29;20402;-72
2021/07/31 07:32:05;;;;;;;8.77;1.25;;;;;;;30.38;31.29;98338.44;4896607;29;20060;-72
2021/07/31 07:34:30;;;;;;;6.47;1.75;;;;;;;29.31;32.91;98330.09;4896807;29;20527;-72
2021/07/31 07:36:55;;;;;;;3.55;1.05;;;;;;;26.53;37.97;98344.41;4896678;29;20123;-72
2021/07/31 07:39:21;;;;;;;7.03;1.70;;;;;;;27.75;36.96;98333.03;4896866;29;20033;-72
2021/07/31 07:41:46;;;;;;;13.48;2.03;;;;;;;27.33;36.76;98336.09;4896733;29;20059;-72
2021/07/31 07:44:12;;;;;;;8.07;1.40;;;;;;;27.69;36.10;98333.59;4896943;29;20156;-72
2021/07/31 07:46:37;;;;;;;9.75;1.63;;;;;;;28.10;35.81;98342.13;4896956;29;20395;-72
2021/07/31 07:49:02;;;;;;;10.77;1.52;;;;;;;30.09;32.86;98335.31;4896914;29;20087;-72
2021/07/31 07:51:28;;;;;;;3.40;1.50;;;;;;;30.23;31.99;98339.25;4896534;29;20039;-72
2021/07/31 07:53:54;;;;;;;4.53;1.50;;;;;;;27.02;36.69;98340.72;4896844;29;20031;-72
2021/07/31 07:56:19;;;;;;;3.42;1.25;;;;;;;27.31;37.72;98340.72;4896842;29;20039;-72
2021/07/31 07:58:44;;;;;;;5.40;1.55;;;;;;;28.93;35.04;98335.63;4896766;29;20060;-72
2021/07/31 08:01:10;;;;;;;6.07;1.30;;;;;;;30.64;31.14;98337.47;4896435;29;20025;-72
2021/07/31 08:03:35;;;;;;;5.78;1.23;;;;;;;29.64;32.20;98345.34;4896658;29;20443;-72
2021/07/31 08:06:01;;;;;;;8.45;1.60;;;;;;;29.43;32.30;98348.34;4896756;29;20044;-72
2021/07/31 08:08:26;;;;;;;11.18;1.23;;;;;;;28.33;34.57;98342.50;4896437;29;20071;-72
2021/07/31 08:10:52;;;;;;;4.63;1.70;;;;;;;28.18;34.02;98340.34;4896717;29;20057;-72
2021/07/31 08:13:18;;;;;;;8.55;1.90;;;;;;;26.07;35.40;98338.72;4896502;29;20036;-72
2021/07/31 08:15:43;;;;;;;2.45;1.20;;;;;;;26.39;35.68;98338.47;4896556;29;20032;-72
2021/07/31 08:18:08;;;;;;;5.47;1.40;;;;;;;28.14;32.91;98335.47;4896737;29;20029;-72
2021/07/31 08:20:34;;;;;;;4.43;1.27;;;;;;;25.99;36.77;98345.66;4896533;29;20080;-72
2021/07/31 08:23:00;;;;;;;3.40;1.33;;;;;;;27.85;33.90;98333.84;4896469;29;20032;-72
2021/07/31 08:25:25;;;;;;;4.55;1.20;;;;;;;29.42;31.52;98335.97;4896417;29;20033;-73
2021/07/31 08:27:51;;;;;;;5.82;1.30;;;;;;;30.29;30.84;98333.25;4889009;29;20037;-72
2021/07/31 08:30:16;;;;;;;9.57;1.38;;;;;;;27.40;33.80;98339.84;4889150;29;21128;-72
2021/07/31 08:32:43;;;;;;;4.82;1.85;;;;;;;27.42;33.83;98337.91;4888697;29;20039;-72
2021/07/31 08:35:10;;;;;;;4.13;1.27;;;;;;;26.81;35.36;98338.25;4889177;29;20038;-72
2021/07/31 08:37:37;;;;;;;9.40;4.75;;;;;;;28.18;34.03;98334.19;4889269;29;20028;-72
2021/07/31 08:40:02;;;;;;;4.05;2.35;;;;;;;29.51;32.16;98328.03;4888873;29;20044;-72
2021/07/31 08:42:28;;;;;;;3.70;1.30;;;;;;;29.32;31.58;98343.25;4887663;29;20478;-72
2021/07/31 08:44:54;;;;;;;4.70;1.58;;;;;;;25.84;37.33;98343.38;4889121;29;20032;-72
2021/07/31 08:47:21;;;;;;;5.05;1.50;;;;;;;25.91;38.12;98337.53;4895900;29;20398;-72
2021/07/31 08:49:47;;;;;;;5.32;1.45;;;;;;;25.21;39.23;98344.47;4898306;29;20025;-72
2021/07/31 08:52:14;;;;;;;4.68;1.70;;;;;;;28.31;34.40;98340.00;4899375;29;20029;-72
2021/07/31 08:54:39;;;;;;;5.25;1.63;;;;;;;26.73;37.44;98335.44;4898814;29;20037;-72
2021/07/31 08:57:06;;;;;;;5.85;1.42;;;;;;;26.70;36.80;98341.06;4897746;29;20025;-72
2021/07/31 08:59:32;;;;;;;10.70;1.33;;;;;;;25.87;38.86;98337.81;4898620;29;20057;-72
2021/07/31 09:01:58;;;;;;;6.85;1.45;;;;;;;26.19;38.72;98336.78;4896247;29;20060;-72
2021/07/31 09:04:23;;;;;;;5.45;1.60;;;;;;;26.03;38.64;98325.84;4883461;29;20037;-72
2021/07/31 09:06:49;;;;;;;4.60;1.50;;;;;;;26.05;37.24;98329.19;4876388;29;20093;-72
2021/07/31 09:09:26;;;;;;;2.70;1.20;;;;;;;25.23;39.85;98337.19;4874547;29;20108;-72
2021/07/31 09:11:54;;;;;;;5.60;1.52;;;;;;;26.00;36.95;98334.06;4875391;29;20043;-72
2021/07/31 09:14:19;;;;;;;4.10;1.10;;;;;;;27.30;34.84;98328.41;4877416;29;20040;-72
2021/07/31 09:16:46;;;;;;;3.58;1.63;;;;;;;29.48;30.96;98325.66;4874515;29;20021;-72
2021/07/31 09:19:14;;;;;;;3.90;1.45;;;;;;;29.74;30.32;98318.50;4870510;29;20092;-72
2021/07/31 09:21:40;;;;;;;6.43;1.50;;;;;;;29.18;31.01;98322.50;4874840;29;20024;-73
2021/07/31 09:24:19;;;;;;;3.17;0.90;;;;;;;27.82;32.72;98322.63;4868711;29;20025;-73
2021/07/31 09:26:49;;;;;;;2.45;1.20;;;;;;;29.15;31.20;98317.44;4871891;29;20036;-73
2021/07/31 09:29:16;;;;;;;11.00;1.95;;;;;;;30.39;29.80;98308.03;4872150;29;20040;-73
2021/07/31 09:31:54;;;;;;;5.38;1.50;;;;;;;29.86;29.48;98311.84;4875567;29;20036;-73
2021/07/31 09:34:35;;;;;;;3.80;1.15;;;;;;;27.90;32.92;98320.91;4886754;29;20025;-73
2021/07/31 09:37:11;;;;;;;4.40;1.27;;;;;;;28.73;32.33;98318.13;4885693;29;20064;-73
2021/07/31 09:39:59;;;;;;;3.30;1.55;;;;;;;30.12;30.15;98310.94;4883831;29;20025;-73
2021/07/31 09:42:26;;;;;;;3.75;1.25;;;;;;;30.37;30.21;98309.19;4890185;29;20032;-73
2021/07/31 09:44:51;;;;;;;3.13;1.10;;;;;;;30.45;29.92;98309.19;4895734;29;20099;-73
2021/07/31 09:47:17;;;;;;;4.20;1.40;;;;;;;28.31;32.22;98308.03;4898400;29;20486;-73
2021/07/31 09:49:42;;;;;;;1.95;1.17;;;;;;;28.97;31.60;98296.16;4898576;29;20028;-73
2021/07/31 09:52:22;;;;;;;5.88;1.48;;;;;;;25.94;37.70;98305.41;4898372;29;20024;-73
2021/07/31 09:54:48;;;;;;;38.50;23.58;;;;;;;26.04;37.49;98317.72;4898619;29;20061;-73
2021/07/31 09:57:14;;;;;;;4.25;1.63;;;;;;;25.51;38.94;98314.44;4898626;29;20135;-73
2021/07/31 09:59:44;;;;;;;9.07;2.72;;;;;;;24.36;41.66;98309.03;4898379;29;20024;-73
2021/07/31 10:02:15;;;;;;;9.15;2.25;;;;;;;23.29;43.76;98303.47;4898408;29;20223;-73
2021/07/31 10:04:40;;;;;;;10.45;1.77;;;;;;;23.23;43.07;98303.97;4898285;29;20036;-73
2021/07/31 10:07:05;;;;;;;7.15;2.05;;;;;;;23.67;43.43;98303.16;4898363;29;20044;-73
2021/07/31 10:09:35;;;;;;;8.40;2.10;;;;;;;23.39;44.42;98293.03;4898231;29;20024;-73
2021/07/31 10:12:02;;;;;;;;;;;;;;;25.02;40.35;98292.13;4898516;29;20037;-73
2021/07/31 10:14:28;;;;;;;6.57;1.70;;;;;;;27.10;35.84;98297.50;4898121;29;19939;-73
2021/07/31 10:16:55;;;;;;;3.15;1.35;;;;;;;25.87;37.62;98295.34;4898326;29;20028;-73
2021/07/31 10:19:20;;;;;;;6.38;1.75;;;;;;;24.68;40.21;98289.66;4898149;29;20115;-73
2021/07/31 10:21:49;;;;;;;7.32;1.63;;;;;;;24.82;41.69;98286.69;4897885;29;20020;-73
2021/07/31 10:24:15;;;;;;;2.83;1.48;;;;;;;27.84;34.29;98276.22;4898148;29;20108;-73
2021/07/31 10:27:15;;;;;;;7.53;1.55;;;;;;;30.66;29.98;98284.66;4898048;29;20072;-73
2021/07/31 10:29:45;;;;;;;8.77;1.40;;;;;;;28.82;32.58;98271.88;4897762;29;20119;-73
2021/07/31 10:32:29;;;;;;;2.17;1.13;;;;;;;31.02;29.64;98276.28;4897402;29;20106;-73
2021/07/31 10:34:57;;;;;;;3.72;1.20;;;;;;;30.88;30.14;98275.97;4897648;29;20025;-73
2021/07/31 10:37:29;;;;;;;9.82;1.30;;;;;;;28.44;34.08;98278.38;4898035;29;20236;-73
2021/07/31 10:39:55;;;;;;;5.10;1.55;;;;;;;28.58;32.57;98277.00;4897664;29;20033;-74
2021/07/31 10:42:21;;;;;;;3.90;1.15;;;;;;;28.17;32.83;98284.56;4897458;29;20025;-74
2021/07/31 10:45:16;;;;;;;2.90;1.33;;;;;;;30.69;29.19;98286.97;4897710;29;20037;-74
2021/07/31 10:47:43;;;;;;;2.10;1.27;;;;;;;31.58;29.04;98277.19;4897655;29;20021;-74
2021/07/31 10:52:52;;;;;;;9.73;1.73;;;;;;;31.12;28.62;98287.63;4897383;29;20079;-73
2021/07/31 10:55:22;;;;;;;4.57;1.50;;;;;;;26.57;35.74;98297.97;4897611;29;20029;-73
2021/07/31 10:57:53;;;;;;;7.68;1.48;;;;;;;27.62;36.34;98284.59;4897316;29;20029;-73
2021/07/31 11:00:29;;;;;;;3.10;1.40;;;;;;;26.71;35.03;98284.25;4897286;29;20028;-73
2021/07/31 11:02:58;;;;;;;2.45;0.98;;;;;;;28.50;33.63;98279.59;4897108;29;20026;-73
2021/07/31 11:05:23;;;;;;;13.93;1.67;;;;;;;31.12;28.96;98279.63;4897221;29;20116;-73
2021/07/31 11:07:58;;;;;;;4.13;1.20;;;;;;;29.91;29.46;98282.81;4897198;29;20561;-73
2021/07/31 11:10:43;;;;;;;6.05;1.35;;;;;;;28.74;31.15;98287.78;4897278;29;20390;-73
2021/07/31 11:13:18;;;;;;;3.00;1.35;;;;;;;27.25;34.12;98288.09;4896627;29;20080;-73
2021/07/31 11:16:13;;;;;;;5.18;1.30;;;;;;;25.75;36.96;98296.41;4896995;29;20036;-73
2021/07/31 11:18:44;;;;;;;5.05;1.67;;;;;;;27.04;38.05;98290.09;4893615;29;20131;-73
2021/07/31 11:21:12;;;;;;;4.60;1.40;;;;;;;30.53;30.24;98276.28;4896955;29;20471;-73
2021/07/31 11:23:43;;;;;;;5.72;1.75;;;;;;;32.24;26.72;98263.25;4897123;29;20032;-73
2021/07/31 11:26:08;;;;;;;2.42;1.27;;;;;;;32.71;25.00;98269.50;4897013;29;20067;-74
2021/07/31 11:28:36;;;;;;;9.65;1.48;;;;;;;27.47;32.67;98278.06;4897041;29;20056;-74
2021/07/31 11:31:14;;;;;;;4.93;1.40;;;;;;;25.11;36.53;98283.41;4897129;29;20027;-74
2021/07/31 11:33:40;;;;;;;12.75;1.90;;;;;;;27.65;33.59;98269.13;4896747;29;20430;-74
2021/07/31 11:36:12;;;;;;;29.90;2.75;;;;;;;27.61;32.92;98274.94;4896928;29;20029;-73
2021/07/31 11:38:40;;;;;;;3.20;1.20;;;;;;;30.10;27.66;98264.84;4897614;29;20033;-73
2021/07/31 11:41:11;;;;;;;2.72;1.52;;;;;;;28.88;30.65;98267.72;4897014;29;20020;-73
2021/07/31 11:43:54;;;;;;;3.08;1.13;;;;;;;28.79;31.55;98274.81;4896879;29;20393;-73
2021/07/31 11:46:30;;;;;;;6.05;1.30;;;;;;;28.08;32.84;98274.81;4897645;29;20435;-73
2021/07/31 11:48:58;;;;;;;3.33;1.40;;;;;;;27.10;33.37;98285.03;4897255;29;20033;-73
2021/07/31 11:51:24;;;;;;;2.42;1.58;;;;;;;26.87;33.75;98279.19;4896419;29;20088;-73
2021/07/31 11:53:50;;;;;;;6.45;1.73;;;;;;;27.14;33.23;98265.16;4896913;29;20375;-73
2021/07/31 11:56:20;;;;;;;6.82;1.73;;;;;;;28.51;31.36;98259.94;4896908;29;20089;-73
2021/07/31 11:58:47;;;;;;;1.48;1.17;;;;;;;30.57;28.27;98261.59;4896736;29;20056;-73
2021/07/31 12:01:14;;;;;;;3.28;1.20;;;;;;;32.09;28.03;98262.38;4896485;29;20163;-73
2021/07/31 12:03:54;;;;;;;15.93;11.70;;;;;;;31.53;27.47;98252.75;4896419;29;20029;-73
2021/07/31 12:06:40;;;;;;;5.00;1.50;;;;;;;29.40;28.49;98255.22;4896442;29;20039;-74
2021/07/31 12:09:18;;;;;;;1.98;1.15;;;;;;;29.02;30.12;98253.03;4895453;29;20115;-73
2021/07/31 12:11:44;;;;;;;3.50;1.35;;;;;;;27.83;31.97;98261.22;4896428;29;20077;-73
2021/07/31 12:14:38;;;;;;;2.50;1.60;;;;;;;27.65;31.64;98265.63;4896592;29;20032;-73
2021/07/31 12:17:17;;;;;;;7.45;1.45;;;;;;;28.27;32.32;98264.00;4896688;29;20024;-73
2021/07/31 12:19:44;;;;;;;3.03;1.13;;;;;;;28.23;32.34;98256.47;4896491;29;20028;-73
2021/07/31 12:22:11;;;;;;;2.28;1.05;;;;;;;28.94;30.81;98254.63;4896387;29;20055;-72
2021/07/31 12:24:36;;;;;;;5.03;1.35;;;;;;;27.87;32.11;98257.28;4898368;29;20033;-73
2021/07/31 12:27:02;;;;;;;4.25;1.48;;;;;;;28.07;32.16;98259.81;4900275;29;20517;-73
2021/07/31 12:29:38;;;;;;;3.97;1.63;;;;;;;28.34;31.88;98258.97;4900162;29;20037;-72
2021/07/31 12:32:24;;;;;;;3.50;1.55;;;;;;;27.77;33.49;98251.19;4899956;29;20028;-73
2021/07/31 12:34:51;;;;;;;5.25;1.30;;;;;;;27.44;33.46;98254.41;4894267;29;20039;-73
2021/07/31 12:37:17;;;;;;;3.55;1.70;;;;;;;27.66;32.26;98251.38;4900028;29;20111;-72
2021/07/31 12:39:43;;;;;;;6.93;1.40;;;;;;;27.09;33.12;98255.94;4899903;29;20164;-72
2021/07/31 12:42:09;;;;;;;5.20;3.33;;;;;;;26.81;34.39;98262.97;4899774;29;20024;-73
2021/07/31 12:44:35;;;;;;;3.47;1.35;;;;;;;25.82;35.13;98255.09;4899934;29;20025;-73
2021/07/31 12:47:01;;;;;;;4.50;1.35;;;;;;;25.83;34.86;98256.78;4899902;29;20083;-72
2021/07/31 12:49:26;;;;;;;3.33;1.70;;;;;;;25.70;36.49;98250.84;4899791;29;20287;-73
2021/07/31 12:51:51;;;;;;;3.53;1.52;;;;;;;25.66;36.98;98252.06;4899385;29;20043;-72
2021/07/31 12:54:17;;;;;;;4.20;1.50;;;;;;;25.77;37.24;98257.31;4899779;29;20034;-72
2021/07/31 12:56:42;;;;;;;6.18;1.77;;;;;;;25.84;36.71;98250.47;4899717;29;20025;-72
2021/07/31 12:59:07;;;;;;;6.70;1.55;;;;;;;25.78;36.94;98252.84;4899663;29;20047;-73
2021/07/31 13:01:33;;;;;;;3.30;1.60;;;;;;;25.56;37.03;98237.94;4899178;29;20043;-73
2021/07/31 13:03:58;;;;;;;6.10;1.67;;;;;;;26.09;36.28;98245.63;4899405;29;20024;-73
2021/07/31 13:06:24;;;;;;;2.50;1.30;;;;;;;26.11;35.49;98244.53;4899331;29;20028;-73
2021/07/31 13:08:49;;;;;;;6.53;1.50;;;;;;;25.77;36.02;98249.38;4899673;29;20091;-72
2021/07/31 13:11:17;;;;;;;6.07;1.77;;;;;;;25.39;37.11;98244.75;4899130;29;20035;-72
2021/07/31 13:13:43;;;;;;;3.53;1.50;;;;;;;25.86;36.69;98243.22;4899407;29;20024;-72
2021/07/31 13:16:08;;;;;;;7.38;1.70;;;;;;;26.11;36.19;98241.88;4899922;29;20081;-72
2021/07/31 13:18:34;;;;;;;6.38;2.42;;;;;;;25.22;37.29;98243.53;4899223;29;20383;-72
2021/07/31 13:20:59;;;;;;;6.25;1.58;;;;;;;24.82;39.69;98243.44;4899183;29;20021;-72
2021/07/31 13:23:24;;;;;;;6.97;1.40;;;;;;;25.40;37.41;98237.63;4898987;29;20056;-72
2021/07/31 13:25:50;;;;;;;5.47;1.38;;;;;;;25.80;38.26;98248.22;4899270;29;20036;-72
2021/07/31 13:28:15;;;;;;;6.53;1.45;;;;;;;25.46;36.96;98245.88;4899141;29;20053;-72
2021/07/31 13:30:41;;;;;;;4.82;2.20;;;;;;;24.02;39.07;98249.19;4898947;29;20039;-72
2021/07/31 13:33:06;;;;;;;5.57;2.75;;;;;;;24.36;40.18;98242.00;4898656;29;20032;-72
2021/07/31 13:35:32;;;;;;;5.70;2.30;;;;;;;23.76;39.33;98244.22;4898598;29;20036;-72
2021/07/31 13:37:59;;;;;;;14.88;1.67;;;;;;;24.39;38.70;98238.28;4898921;29;20108;-72
2021/07/31 13:40:25;;;;;;;3.33;1.70;;;;;;;24.86;39.00;98232.47;4899111;29;20020;-72
2021/07/31 13:42:53;;;;;;;6.32;1.50;;;;;;;24.98;39.20;98229.72;4898699;29;20395;-72
2021/07/31 13:45:20;;;;;;;5.13;1.48;;;;;;;25.26;37.96;98231.69;4898797;29;20048;-72
2021/07/31 13:47:45;;;;;;;2.72;1.27;;;;;;;25.96;37.29;98229.09;4898538;29;20028;-72
2021/07/31 13:50:13;;;;;;;2.63;1.33;;;;;;;26.19;37.61;98230.53;4898565;29;20501;-72
2021/07/31 13:52:38;;;;;;;5.63;1.20;;;;;;;26.02;36.08;98225.94;4897387;29;20028;-72
2021/07/31 13:55:05;;;;;;;4.45;1.70;;;;;;;26.21;35.95;98231.25;4898587;29;20021;-72
2021/07/31 13:57:30;;;;;;;4.60;1.20;;;;;;;25.91;36.73;98229.53;4898572;29;20402;-72
2021/07/31 13:59:56;;;;;;;5.60;1.48;;;;;;;26.11;35.52;98227.75;4898476;29;20031;-72
2021/07/31 14:02:22;;;;;;;6.18;1.25;;;;;;;25.62;36.63;98227.63;4898100;29;20036;-72
2021/07/31 14:04:49;;;;;;;8.27;1.90;;;;;;;25.38;37.72;98224.47;4898185;29;20028;-71
2021/07/31 14:07:14;;;;;;;3.45;1.50;;;;;;;25.73;36.47;98225.84;4898372;29;20085;-72
2021/07/31 14:09:40;;;;;;;6.55;1.83;;;;;;;26.03;35.70;98224.94;4898297;29;20419;-71
2021/07/31 14:12:05;;;;;;;5.82;1.80;;;;;;;25.59;35.10;98219.09;4898102;29;20032;-71
2021/07/31 14:14:31;;;;;;;3.55;1.40;;;;;;;25.89;35.94;98221.72;4898266;29;20035;-72
2021/07/31 14:16:56;;;;;;;4.63;1.95;;;;;;;26.00;35.99;98217.25;4898158;29;20033;-72
2021/07/31 14:19:21;;;;;;;12.00;8.77;;;;;;;26.38;35.56;98203.97;4898135;29;20104;-72
2021/07/31 14:21:47;;;;;;;4.18;1.58;;;;;;;26.56;35.77;98201.47;4898131;29;20562;-72
2021/07/31 14:24:12;;;;;;;6.28;1.98;;;;;;;26.65;36.75;98194.47;4898010;29;20032;-72
2021/07/31 14:26:39;;;;;;;3.38;1.30;;;;;;;26.70;35.91;98192.19;4898147;29;20051;-72
2021/07/31 14:29:05;;;;;;;5.45;1.27;;;;;;;26.69;36.32;98198.50;4898092;29;20435;-72
2021/07/31 14:31:30;;;;;;;4.55;1.60;;;;;;;25.70;37.44;98192.44;4898121;29;20097;-72
2021/07/31 14:33:55;;;;;;;4.28;1.48;;;;;;;26.31;37.09;98192.22;4897794;29;20040;-72
2021/07/31 14:36:21;;;;;;;3.60;1.45;;;;;;;26.00;36.92;98193.34;4897897;29;20390;-72
2021/07/31 14:38:47;;;;;;;4.00;1.60;;;;;;;24.82;37.66;98190.44;4898270;29;20398;-72
2021/07/31 14:41:12;;;;;;;5.22;2.08;;;;;;;25.06;38.03;98193.63;4898109;29;20039;-72
2021/07/31 14:43:37;;;;;;;4.60;1.58;;;;;;;24.24;38.97;98195.34;4897946;29;20036;-72
2021/07/31 14:46:12;;;;;;;5.47;1.45;;;;;;;24.98;39.03;98192.59;4897649;29;20478;-72
2021/07/31 14:48:38;;;;;;;2.53;1.45;;;;;;;24.61;39.19;98198.41;4898146;29;20495;-72
2021/07/31 14:51:04;;;;;;;4.13;1.33;;;;;;;25.40;38.06;98190.72;4897763;29;20104;-72
2021/07/31 14:53:29;;;;;;;5.15;1.35;;;;;;;25.34;37.03;98181.47;4897516;29;20367;-72
2021/07/31 14:55:54;;;;;;;7.60;1.50;;;;;;;24.76;39.43;98181.22;4897946;29;20047;-72
2021/07/31 14:58:20;;;;;;;5.13;1.67;;;;;;;23.93;40.39;98187.25;4897562;29;20470;-72
2021/07/31 15:00:45;;;;;;;3.28;1.33;;;;;;;24.11;41.11;98176.97;4897090;29;20024;-72
2021/07/31 15:03:10;;;;;;;8.05;1.65;;;;;;;24.15;40.30;98175.75;4897411;29;20036;-72
2021/07/31 15:05:35;;;;;;;3.08;1.30;;;;;;;24.48;39.51;98179.22;4897987;29;20434;-72
2021/07/31 15:08:01;;;;;;;6.65;1.80;;;;;;;24.48;40.58;98176.59;4897610;29;20055;-72
2021/07/31 15:10:26;;;;;;;3.17;1.63;;;;;;;24.92;39.72;98170.13;4897287;29;20059;-72
2021/07/31 15:12:51;;;;;;;5.28;1.50;;;;;;;24.90;39.67;98171.22;4897161;29;20028;-72
2021/07/31 15:15:17;;;;;;;1.98;1.58;;;;;;;24.68;40.39;98173.06;4897073;29;20029;-72
2021/07/31 15:17:42;;;;;;;11.25;1.98;;;;;;;24.23;40.40;98177.78;4897119;29;20028;-72
2021/07/31 15:20:08;;;;;;;2.85;1.20;;;;;;;24.90;40.55;98166.78;4900316;29;20028;-72
2021/07/31 15:22:33;;;;;;;8.65;1.80;;;;;;;25.18;39.40;98175.81;4897212;29;20044;-72
2021/07/31 15:24:59;;;;;;;2.28;1.45;;;;;;;25.03;40.86;98166.53;4897587;29;20025;-72
2021/07/31 15:27:24;;;;;;;5.70;1.77;;;;;;;25.50;40.00;98174.81;4898182;29;20024;-73
2021/07/31 15:29:49;;;;;;;2.90;1.30;;;;;;;25.44;39.12;98164.75;4897035;29;20542;-72
2021/07/31 15:32:15;;;;;;;4.93;1.67;;;;;;;24.94;40.39;98165.50;4896591;29;20060;-72
2021/07/31 15:34:40;;;;;;;4.70;1.70;;;;;;;24.76;42.21;98165.31;4896918;29;20381;-72
2021/07/31 15:37:05;;;;;;;3.95;1.65;;;;;;;24.54;40.78;98163.66;4897027;29;20482;-72
2021/07/31 15:39:31;;;;;;;3.63;1.73;;;;;;;24.26;40.61;98162.44;4896895;29;20060;-72
2021/07/31 15:41:56;;;;;;;3.80;1.60;;;;;;;25.28;40.40;98166.09;4896652;29;20414;-72
2021/07/31 15:44:21;;;;;;;5.82;2.15;;;;;;;25.37;38.72;98165.28;4896852;29;20251;-72
2021/07/31 15:46:47;;;;;;;4.88;1.88;;;;;;;24.95;40.65;98161.06;4896690;29;20021;-72
2021/07/31 15:49:12;;;;;;;7.97;1.35;;;;;;;25.06;40.26;98155.69;4896711;29;20032;-72
2021/07/31 15:51:38;;;;;;;3.97;1.60;;;;;;;25.46;38.88;98154.84;4896518;29;20033;-72
2021/07/31 15:54:03;;;;;;;5.15;1.55;;;;;;;25.54;38.86;98160.31;4896843;29;20028;-72
2021/07/31 15:56:29;;;;;;;4.95;2.10;;;;;;;25.53;38.21;98167.44;4896823;29;20024;-72
2021/07/31 15:58:55;;;;;;;5.45;1.60;;;;;;;25.23;38.32;98167.47;4899429;29;20035;-73
2021/07/31 16:01:21;;;;;;;3.72;1.65;;;;;;;24.91;38.80;98163.16;4900330;29;20093;-72
2021/07/31 16:03:46;;;;;;;10.32;1.58;;;;;;;25.43;37.82;98155.09;4900465;29;20056;-72
2021/07/31 16:06:14;;;;;;;2.65;1.50;;;;;;;24.73;37.58;98149.66;4900543;29;20040;-72
2021/07/31 16:08:40;;;;;;;4.00;1.83;;;;;;;24.09;39.97;98149.81;4900765;29;20035;-72
2021/07/31 16:11:13;;;;;;;3.83;1.55;;;;;;;24.15;40.65;98141.34;4900233;29;20394;-72
2021/07/31 16:13:39;;;;;;;2.15;1.25;;;;;;;24.61;40.03;98140.09;4901191;29;20069;-72
2021/07/31 16:16:04;;;;;;;3.33;1.38;;;;;;;24.99;39.42;98133.31;4900476;29;20032;-72
2021/07/31 16:18:31;;;;;;;4.57;1.60;;;;;;;24.42;39.22;98147.94;4900574;29;20076;-72
2021/07/31 16:20:56;;;;;;;2.65;1.30;;;;;;;24.93;38.87;98144.47;4900186;29;20052;-72
2021/07/31 16:23:22;;;;;;;5.65;1.80;;;;;;;25.45;39.71;98146.03;4900221;29;20068;-72
2021/07/31 16:25:47;;;;;;;3.30;1.23;;;;;;;25.66;37.27;98148.56;4900190;29;20107;-72
2021/07/31 16:28:13;;;;;;;4.45;1.48;;;;;;;25.80;36.42;98150.84;4900184;29;20045;-72
2021/07/31 16:30:38;;;;;;;2.83;1.30;;;;;;;25.10;37.45;98147.34;4900048;29;20029;-70
2021/07/31 16:33:03;;;;;;;6.70;1.60;;;;;;;25.23;38.38;98147.09;4899928;29;20040;-72
2021/07/31 16:35:29;;;;;;;4.18;1.50;;;;;;;25.07;37.24;98131.69;4900032;29;20427;-71
2021/07/31 16:37:54;;;;;;;3.13;1.63;;;;;;;25.44;39.06;98138.22;4900115;29;20422;-72
2021/07/31 16:40:20;;;;;;;3.28;1.60;;;;;;;24.69;39.46;98140.31;4899916;29;20028;-71
2021/07/31 16:42:46;;;;;;;8.13;1.73;;;;;;;25.02;39.49;98143.66;4898556;29;20076;-71
2021/07/31 16:45:12;;;;;;;7.25;1.88;;;;;;;24.78;40.25;98142.16;4899776;29;20028;-71
2021/07/31 16:47:37;;;;;;;9.95;1.48;;;;;;;24.50;39.74;98150.78;4898714;29;20390;-71
2021/07/31 16:50:05;;;;;;;3.83;1.70;;;;;;;24.39;40.66;98145.56;4899610;29;20080;-72
2021/07/31 16:52:30;;;;;;;6.22;2.08;;;;;;;24.52;40.84;98160.31;4899602;29;20036;-71
2021/07/31 16:54:55;;;;;;;7.13;1.67;;;;;;;25.35;39.44;98156.63;4899846;29;20501;-71
2021/07/31 16:57:22;;;;;;;6.82;1.30;;;;;;;25.17;40.43;98162.72;4899559;29;20031;-71
2021/07/31 16:59:47;;;;;;;5.13;2.05;;;;;;;25.47;38.30;98169.78;4899873;29;20043;-71
2021/07/31 17:02:12;;;;;;;4.55;1.45;;;;;;;25.37;38.47;98167.94;4898198;29;20029;-71
2021/07/31 17:04:39;;;;;;;2.55;1.40;;;;;;;25.28;38.55;98170.56;4898353;29;20148;-71
2021/07/31 17:07:05;;;;;;;6.38;1.80;;;;;;;25.04;39.22;98173.50;4898445;29;20137;-71
2021/07/31 17:09:30;;;;;;;2.92;1.42;;;;;;;25.63;38.83;98180.72;4897784;29;20091;-71
2021/07/31 17:11:55;;;;;;;7.00;1.77;;;;;;;25.92;37.60;98174.59;4897881;29;20442;-73
2021/07/31 17:14:21;;;;;;;4.32;1.52;;;;;;;25.73;37.40;98186.88;4898343;29;20024;-71
2021/07/31 17:16:46;;;;;;;4.30;1.60;;;;;;;25.75;37.42;98182.28;4898259;29;20028;-71
2021/07/31 17:19:13;;;;;;;6.18;1.75;;;;;;;24.67;40.16;98176.69;4898151;29;20028;-71
2021/07/31 17:21:39;;;;;;;7.13;2.40;;;;;;;24.04;41.06;98184.59;4897888;29;20100;-71
2021/07/31 17:24:04;;;;;;;6.32;2.17;;;;;;;23.61;42.55;98184.59;4881557;29;20520;-71
2021/07/31 17:26:30;;;;;;;8.63;1.88;;;;;;;23.50;42.54;98185.47;4898134;29;20043;-71
2021/07/31 17:28:55;;;;;;;3.67;2.10;;;;;;;23.33;43.42;98188.59;4898036;29;20031;-71
2021/07/31 17:31:25;;;;;;;2.95;1.63;;;;;;;22.93;45.19;98186.47;4897834;29;20483;-71
2021/07/31 17:33:51;;;;;;;2.80;1.80;;;;;;;22.58;45.45;98194.44;4897877;29;20115;-71
2021/07/31 17:36:16;;;;;;;8.73;1.73;;;;;;;22.61;45.74;98190.72;4897901;29;20077;-71
2021/07/31 17:38:41;;;;;;;5.07;1.60;;;;;;;22.41;46.28;98198.34;4897926;29;20115;-72
2021/07/31 17:41:06;;;;;;;6.85;1.58;;;;;;;22.03;46.79;98198.53;4897810;29;20024;-72
2021/07/31 17:43:32;;;;;;;7.75;2.13;;;;;;;21.87;48.01;98205.91;4897781;29;20494;-72
2021/07/31 17:45:57;;;;;;;11.07;7.20;;;;;;;21.79;47.25;98207.28;4897850;29;20033;-72
2021/07/31 17:48:22;;;;;;;11.10;3.25;;;;;;;21.62;47.45;98202.41;4897853;29;20024;-72
2021/07/31 17:50:48;;;;;;;6.95;4.32;;;;;;;21.67;47.64;98210.84;4897724;29;20103;-73
2021/07/31 17:53:14;;;;;;;9.48;4.68;;;;;;;21.56;48.70;98208.13;4897517;29;20072;-72
2021/07/31 17:55:40;;;;;;;10.20;3.88;;;;;;;21.38;48.25;98209.47;4897735;29;20056;-72
2021/07/31 17:58:05;;;;;;;4.65;2.08;;;;;;;21.34;49.01;98207.97;4897614;29;20714;-72
2021/07/31 18:00:30;;;;;;;12.50;2.05;;;;;;;21.25;48.83;98204.16;4861658;29;1063604;-72
2021/07/31 18:02:56;;;;;;;3.72;1.70;;;;;;;21.14;49.22;98207.56;4898310;29;20389;-72
2021/07/31 18:05:21;;;;;;;3.65;1.77;;;;;;;21.15;49.19;98209.25;4898351;29;20060;-72
2021/07/31 18:07:46;;;;;;;9.45;2.10;;;;;;;21.03;49.68;98204.81;4898497;29;20522;-72
2021/07/31 18:10:12;;;;;;;3.88;2.17;;;;;;;20.98;49.93;98212.19;4898219;29;20510;-72
2021/07/31 18:12:37;;;;;;;7.30;2.35;;;;;;;21.04;50.39;98211.81;4898178;29;20029;-72
2021/07/31 18:15:04;;;;;;;4.30;2.15;;;;;;;20.87;50.59;98212.13;4898364;29;20071;-72
2021/07/31 18:17:29;;;;;;;4.75;1.63;;;;;;;20.84;51.35;98209.69;4898268;29;20497;-72
2021/07/31 18:19:54;;;;;;;4.15;1.90;;;;;;;21.05;51.64;98208.22;4898180;29;20024;-72
2021/07/31 18:22:19;;;;;;;6.32;2.08;;;;;;;21.02;51.51;98203.16;4896976;29;20027;-72
2021/07/31 18:24:45;;;;;;;3.50;1.75;;;;;;;20.85;51.81;98190.31;4898159;29;20024;-72
2021/07/31 18:27:10;;;;;;;7.93;2.10;;;;;;;20.85;52.15;98185.06;4898103;29;20107;-72
2021/07/31 18:29:35;;;;;;;6.63;1.73;;;;;;;20.89;52.15;98181.25;4898013;29;20439;-72
2021/07/31 18:32:01;;;;;;;9.32;2.17;;;;;;;20.83;52.74;98171.13;4897716;29;20098;-73
2021/07/31 18:34:26;;;;;;;8.00;2.55;;;;;;;20.65;53.46;98168.84;4898125;29;20084;-73
2021/07/31 18:36:52;;;;;;;5.30;2.40;;;;;;;20.83;52.60;98160.59;4898284;29;20029;-73